sensor_id;sensor_type;location;lat;lon;timestamp;P1;durP1;ratioP1;P2;durP2;ratioP2
26277;SDS011;14000;52.056;8.510;2023-04-24T00:00:54;3.67;;;0.90;;
26277;SDS011;14000;52.056;8.510;2023-04-24T00:03:24;1.93;;;0.73;;
26277;SDS011;14000;52.056;8.510;2023-04-24T00:05:49;2.83;;;0.80;;
26277;SDS011;14000;52.056;8.510;2023-04-24T00:08:16;3.57;;;1.00;;
26277;SDS011;14000;52.056;8.510;2023-04-24T00:10:42;3.53;;;0.90;;
26277;SDS011;14000;52.056;8.510;2023-04-24T00:13:07;2.57;;;0.90;;
26277;SDS011;14000;52.056;8.510;2023-04-24T00:15:33;2.93;;;0.87;;
26277;SDS011;14000;52.056;8.510;2023-04-24T00:17:59;4.23;;;0.97;;
26277;SDS011;14000;52.056;8.510;2023-04-24T00:20:26;3.10;;;0.87;;
26277;SDS011;14000;52.056;8.510;2023-04-24T00:22:54;1.53;;;0.80;;
26277;SDS011;14000;52.056;8.510;2023-04-24T00:25:20;5.47;;;1.00;;
26277;SDS011;14000;52.056;8.510;2023-04-24T00:27:45;2.33;;;0.90;;
26277;SDS011;14000;52.056;8.510;2023-04-24T00:30:11;2.27;;;0.90;;
26277;SDS011;14000;52.056;8.510;2023-04-24T00:32:37;4.00;;;0.97;;
26277;SDS011;14000;52.056;8.510;2023-04-24T00:35:02;4.50;;;0.97;;
26277;SDS011;14000;52.056;8.510;2023-04-24T00:37:28;3.93;;;1.07;;
26277;SDS011;14000;52.056;8.510;2023-04-24T00:39:54;2.93;;;1.00;;
26277;SDS011;14000;52.056;8.510;2023-04-24T00:42:20;2.47;;;1.00;;
26277;SDS011;14000;52.056;8.510;2023-04-24T00:44:45;2.43;;;0.90;;
26277;SDS011;14000;52.056;8.510;2023-04-24T00:47:12;3.50;;;1.03;;
26277;SDS011;14000;52.056;8.510;2023-04-24T00:49:38;5.63;;;1.20;;
26277;SDS011;14000;52.056;8.510;2023-04-24T00:52:03;2.47;;;0.90;;
26277;SDS011;14000;52.056;8.510;2023-04-24T00:54:33;3.53;;;1.17;;
26277;SDS011;14000;52.056;8.510;2023-04-24T00:56:59;6.20;;;1.40;;
26277;SDS011;14000;52.056;8.510;2023-04-24T00:59:26;4.03;;;1.07;;
26277;SDS011;14000;52.056;8.510;2023-04-24T01:01:52;3.90;;;1.20;;
26277;SDS011;14000;52.056;8.510;2023-04-24T01:04:18;4.50;;;1.20;;
26277;SDS011;14000;52.056;8.510;2023-04-24T01:06:44;3.40;;;1.00;;
26277;SDS011;14000;52.056;8.510;2023-04-24T01:09:10;4.93;;;1.10;;
26277;SDS011;14000;52.056;8.510;2023-04-24T01:11:37;3.50;;;1.10;;
26277;SDS011;14000;52.056;8.510;2023-04-24T01:14:03;4.00;;;1.10;;
26277;SDS011;14000;52.056;8.510;2023-04-24T01:16:28;3.33;;;1.10;;
26277;SDS011;14000;52.056;8.510;2023-04-24T01:18:54;4.90;;;1.20;;
26277;SDS011;14000;52.056;8.510;2023-04-24T01:21:20;5.40;;;1.27;;
26277;SDS011;14000;52.056;8.510;2023-04-24T01:23:46;3.50;;;1.10;;
26277;SDS011;14000;52.056;8.510;2023-04-24T01:26:13;4.20;;;1.17;;
26277;SDS011;14000;52.056;8.510;2023-04-24T01:28:40;5.97;;;1.30;;
26277;SDS011;14000;52.056;8.510;2023-04-24T01:31:06;4.63;;;1.27;;
26277;SDS011;14000;52.056;8.510;2023-04-24T01:33:32;5.33;;;1.40;;
26277;SDS011;14000;52.056;8.510;2023-04-24T01:35:57;4.50;;;1.40;;
26277;SDS011;14000;52.056;8.510;2023-04-24T01:38:23;4.47;;;1.27;;
26277;SDS011;14000;52.056;8.510;2023-04-24T01:40:49;4.50;;;1.27;;
26277;SDS011;14000;52.056;8.510;2023-04-24T01:43:16;4.97;;;1.60;;
26277;SDS011;14000;52.056;8.510;2023-04-24T01:45:41;6.70;;;1.73;;
26277;SDS011;14000;52.056;8.510;2023-04-24T01:48:07;7.00;;;2.07;;
26277;SDS011;14000;52.056;8.510;2023-04-24T01:50:33;7.00;;;1.63;;
26277;SDS011;14000;52.056;8.510;2023-04-24T01:52:58;5.40;;;1.80;;
26277;SDS011;14000;52.056;8.510;2023-04-24T01:55:24;5.93;;;1.87;;
26277;SDS011;14000;52.056;8.510;2023-04-24T01:57:50;5.60;;;1.57;;
26277;SDS011;14000;52.056;8.510;2023-04-24T02:00:17;5.03;;;1.60;;
26277;SDS011;14000;52.056;8.510;2023-04-24T02:02:43;8.23;;;1.90;;
26277;SDS011;14000;52.056;8.510;2023-04-24T02:05:10;5.67;;;1.80;;
26277;SDS011;14000;52.056;8.510;2023-04-24T02:07:35;6.30;;;1.70;;
26277;SDS011;14000;52.056;8.510;2023-04-24T02:10:01;5.67;;;1.60;;
26277;SDS011;14000;52.056;8.510;2023-04-24T02:12:28;6.67;;;1.87;;
26277;SDS011;14000;52.056;8.510;2023-04-24T02:14:54;5.73;;;2.00;;
26277;SDS011;14000;52.056;8.510;2023-04-24T02:17:20;6.60;;;1.90;;
26277;SDS011;14000;52.056;8.510;2023-04-24T02:19:46;7.33;;;2.23;;
26277;SDS011;14000;52.056;8.510;2023-04-24T02:22:11;6.23;;;2.10;;
26277;SDS011;14000;52.056;8.510;2023-04-24T02:24:37;6.37;;;2.00;;
26277;SDS011;14000;52.056;8.510;2023-04-24T02:27:03;6.87;;;2.10;;
26277;SDS011;14000;52.056;8.510;2023-04-24T02:29:29;8.13;;;2.10;;
26277;SDS011;14000;52.056;8.510;2023-04-24T02:31:55;6.30;;;2.23;;
26277;SDS011;14000;52.056;8.510;2023-04-24T02:34:21;7.73;;;1.97;;
26277;SDS011;14000;52.056;8.510;2023-04-24T02:36:48;6.13;;;2.20;;
26277;SDS011;14000;52.056;8.510;2023-04-24T02:39:13;7.40;;;2.70;;
26277;SDS011;14000;52.056;8.510;2023-04-24T02:41:41;7.50;;;2.70;;
26277;SDS011;14000;52.056;8.510;2023-04-24T02:44:07;9.30;;;2.60;;
26277;SDS011;14000;52.056;8.510;2023-04-24T02:46:33;6.50;;;2.27;;
26277;SDS011;14000;52.056;8.510;2023-04-24T02:48:58;6.60;;;2.30;;
26277;SDS011;14000;52.056;8.510;2023-04-24T02:51:24;8.57;;;2.50;;
26277;SDS011;14000;52.056;8.510;2023-04-24T02:53:50;8.40;;;2.37;;
26277;SDS011;14000;52.056;8.510;2023-04-24T02:56:15;7.03;;;2.40;;
26277;SDS011;14000;52.056;8.510;2023-04-24T02:58:41;7.07;;;2.20;;
26277;SDS011;14000;52.056;8.510;2023-04-24T03:01:07;6.73;;;2.40;;
26277;SDS011;14000;52.056;8.510;2023-04-24T03:03:34;6.63;;;2.17;;
26277;SDS011;14000;52.056;8.510;2023-04-24T03:06:00;6.50;;;2.27;;
26277;SDS011;14000;52.056;8.510;2023-04-24T03:08:26;7.47;;;2.10;;
26277;SDS011;14000;52.056;8.510;2023-04-24T03:10:52;7.97;;;2.33;;
26277;SDS011;14000;52.056;8.510;2023-04-24T03:13:18;6.63;;;2.07;;
26277;SDS011;14000;52.056;8.510;2023-04-24T03:15:43;7.67;;;2.23;;
26277;SDS011;14000;52.056;8.510;2023-04-24T03:18:10;7.17;;;2.27;;
26277;SDS011;14000;52.056;8.510;2023-04-24T03:20:35;6.93;;;2.13;;
26277;SDS011;14000;52.056;8.510;2023-04-24T03:23:02;6.37;;;1.90;;
26277;SDS011;14000;52.056;8.510;2023-04-24T03:25:28;7.20;;;2.30;;
26277;SDS011;14000;52.056;8.510;2023-04-24T03:27:53;6.53;;;1.90;;
26277;SDS011;14000;52.056;8.510;2023-04-24T03:30:19;7.43;;;2.20;;
26277;SDS011;14000;52.056;8.510;2023-04-24T03:32:45;7.30;;;2.30;;
26277;SDS011;14000;52.056;8.510;2023-04-24T03:35:10;7.60;;;2.23;;
26277;SDS011;14000;52.056;8.510;2023-04-24T03:37:36;8.50;;;2.00;;
26277;SDS011;14000;52.056;8.510;2023-04-24T03:40:02;7.07;;;2.37;;
26277;SDS011;14000;52.056;8.510;2023-04-24T03:42:28;7.60;;;2.30;;
26277;SDS011;14000;52.056;8.510;2023-04-24T03:44:53;7.63;;;2.07;;
26277;SDS011;14000;52.056;8.510;2023-04-24T03:47:19;7.20;;;2.20;;
26277;SDS011;14000;52.056;8.510;2023-04-24T03:49:44;6.80;;;2.10;;
26277;SDS011;14000;52.056;8.510;2023-04-24T03:52:10;6.97;;;2.30;;
26277;SDS011;14000;52.056;8.510;2023-04-24T03:54:36;7.00;;;2.20;;
26277;SDS011;14000;52.056;8.510;2023-04-24T03:57:01;6.90;;;2.00;;
26277;SDS011;14000;52.056;8.510;2023-04-24T03:59:28;6.73;;;2.17;;
26277;SDS011;14000;52.056;8.510;2023-04-24T04:01:53;6.73;;;2.30;;
26277;SDS011;14000;52.056;8.510;2023-04-24T04:04:19;7.40;;;2.37;;
26277;SDS011;14000;52.056;8.510;2023-04-24T04:06:45;6.63;;;2.40;;
26277;SDS011;14000;52.056;8.510;2023-04-24T04:09:11;6.77;;;2.47;;
26277;SDS011;14000;52.056;8.510;2023-04-24T04:11:37;7.90;;;2.37;;
26277;SDS011;14000;52.056;8.510;2023-04-24T04:14:02;7.93;;;2.73;;
26277;SDS011;14000;52.056;8.510;2023-04-24T04:16:28;8.00;;;2.70;;
26277;SDS011;14000;52.056;8.510;2023-04-24T04:18:54;10.03;;;2.70;;
26277;SDS011;14000;52.056;8.510;2023-04-24T04:21:20;8.27;;;2.50;;
26277;SDS011;14000;52.056;8.510;2023-04-24T04:23:46;8.33;;;2.57;;
26277;SDS011;14000;52.056;8.510;2023-04-24T04:26:11;6.90;;;2.53;;
26277;SDS011;14000;52.056;8.510;2023-04-24T04:28:37;9.30;;;2.90;;
26277;SDS011;14000;52.056;8.510;2023-04-24T04:31:04;7.67;;;2.67;;
26277;SDS011;14000;52.056;8.510;2023-04-24T04:33:30;9.33;;;3.03;;
26277;SDS011;14000;52.056;8.510;2023-04-24T04:35:56;8.00;;;2.80;;
26277;SDS011;14000;52.056;8.510;2023-04-24T04:38:22;8.80;;;3.00;;
26277;SDS011;14000;52.056;8.510;2023-04-24T04:40:47;8.70;;;3.00;;
26277;SDS011;14000;52.056;8.510;2023-04-24T04:43:13;8.67;;;3.43;;
26277;SDS011;14000;52.056;8.510;2023-04-24T04:45:42;8.97;;;3.40;;
26277;SDS011;14000;52.056;8.510;2023-04-24T04:48:08;7.90;;;3.47;;
26277;SDS011;14000;52.056;8.510;2023-04-24T04:50:37;14.07;;;4.57;;
26277;SDS011;14000;52.056;8.510;2023-04-24T04:53:02;11.63;;;6.10;;
26277;SDS011;14000;52.056;8.510;2023-04-24T04:55:28;14.60;;;6.90;;
26277;SDS011;14000;52.056;8.510;2023-04-24T04:57:54;15.20;;;6.30;;
26277;SDS011;14000;52.056;8.510;2023-04-24T05:00:21;16.30;;;8.13;;
26277;SDS011;14000;52.056;8.510;2023-04-24T05:02:48;15.77;;;9.13;;
26277;SDS011;14000;52.056;8.510;2023-04-24T05:05:13;17.30;;;9.30;;
26277;SDS011;14000;52.056;8.510;2023-04-24T05:07:39;17.13;;;9.57;;
26277;SDS011;14000;52.056;8.510;2023-04-24T05:10:04;17.07;;;9.90;;
26277;SDS011;14000;52.056;8.510;2023-04-24T05:12:30;17.30;;;9.80;;
26277;SDS011;14000;52.056;8.510;2023-04-24T05:14:56;17.60;;;9.73;;
26277;SDS011;14000;52.056;8.510;2023-04-24T05:17:21;17.03;;;8.90;;
26277;SDS011;14000;52.056;8.510;2023-04-24T05:19:47;18.57;;;10.20;;
26277;SDS011;14000;52.056;8.510;2023-04-24T05:22:13;16.37;;;9.87;;
26277;SDS011;14000;52.056;8.510;2023-04-24T05:24:38;19.17;;;9.80;;
26277;SDS011;14000;52.056;8.510;2023-04-24T05:27:04;21.37;;;10.83;;
26277;SDS011;14000;52.056;8.510;2023-04-24T05:29:30;18.00;;;10.10;;
26277;SDS011;14000;52.056;8.510;2023-04-24T05:31:56;16.80;;;10.03;;
26277;SDS011;14000;52.056;8.510;2023-04-24T05:34:22;18.70;;;10.17;;
26277;SDS011;14000;52.056;8.510;2023-04-24T05:36:48;17.97;;;9.97;;
26277;SDS011;14000;52.056;8.510;2023-04-24T05:39:15;21.17;;;10.67;;
26277;SDS011;14000;52.056;8.510;2023-04-24T05:41:41;18.13;;;10.47;;
26277;SDS011;14000;52.056;8.510;2023-04-24T05:44:06;19.77;;;11.20;;
26277;SDS011;14000;52.056;8.510;2023-04-24T05:46:32;20.27;;;10.63;;
26277;SDS011;14000;52.056;8.510;2023-04-24T05:48:57;21.60;;;11.13;;
26277;SDS011;14000;52.056;8.510;2023-04-24T05:51:23;23.33;;;11.53;;
26277;SDS011;14000;52.056;8.510;2023-04-24T05:53:49;24.73;;;13.17;;
26277;SDS011;14000;52.056;8.510;2023-04-24T05:56:15;21.67;;;11.93;;
26277;SDS011;14000;52.056;8.510;2023-04-24T05:58:41;23.83;;;11.97;;
26277;SDS011;14000;52.056;8.510;2023-04-24T06:01:06;21.13;;;12.23;;
26277;SDS011;14000;52.056;8.510;2023-04-24T06:03:32;23.67;;;13.10;;
26277;SDS011;14000;52.056;8.510;2023-04-24T06:05:57;23.33;;;12.27;;
26277;SDS011;14000;52.056;8.510;2023-04-24T06:08:23;21.03;;;12.17;;
26277;SDS011;14000;52.056;8.510;2023-04-24T06:10:49;22.83;;;12.67;;
26277;SDS011;14000;52.056;8.510;2023-04-24T06:13:15;22.23;;;12.87;;
26277;SDS011;14000;52.056;8.510;2023-04-24T06:15:41;25.80;;;13.13;;
26277;SDS011;14000;52.056;8.510;2023-04-24T06:18:06;24.27;;;12.37;;
26277;SDS011;14000;52.056;8.510;2023-04-24T06:20:34;24.73;;;13.83;;
26277;SDS011;14000;52.056;8.510;2023-04-24T06:23:00;26.60;;;13.40;;
26277;SDS011;14000;52.056;8.510;2023-04-24T06:25:26;26.50;;;14.13;;
26277;SDS011;14000;52.056;8.510;2023-04-24T06:27:52;25.37;;;13.83;;
26277;SDS011;14000;52.056;8.510;2023-04-24T06:30:17;22.60;;;12.83;;
26277;SDS011;14000;52.056;8.510;2023-04-24T06:32:43;21.60;;;13.77;;
26277;SDS011;14000;52.056;8.510;2023-04-24T06:35:08;23.70;;;13.60;;
26277;SDS011;14000;52.056;8.510;2023-04-24T06:37:34;22.77;;;13.97;;
26277;SDS011;14000;52.056;8.510;2023-04-24T06:40:00;25.10;;;14.17;;
26277;SDS011;14000;52.056;8.510;2023-04-24T06:42:26;23.63;;;13.80;;
26277;SDS011;14000;52.056;8.510;2023-04-24T06:44:52;22.87;;;14.87;;
26277;SDS011;14000;52.056;8.510;2023-04-24T06:47:18;23.43;;;13.80;;
26277;SDS011;14000;52.056;8.510;2023-04-24T06:49:44;24.93;;;15.07;;
26277;SDS011;14000;52.056;8.510;2023-04-24T06:52:09;24.27;;;14.60;;
26277;SDS011;14000;52.056;8.510;2023-04-24T06:54:35;26.50;;;14.03;;
26277;SDS011;14000;52.056;8.510;2023-04-24T06:57:01;25.30;;;14.47;;
26277;SDS011;14000;52.056;8.510;2023-04-24T06:59:28;23.00;;;14.53;;
26277;SDS011;14000;52.056;8.510;2023-04-24T07:01:54;24.67;;;14.67;;
26277;SDS011;14000;52.056;8.510;2023-04-24T07:04:20;26.87;;;14.47;;
26277;SDS011;14000;52.056;8.510;2023-04-24T07:06:46;27.43;;;15.03;;
26277;SDS011;14000;52.056;8.510;2023-04-24T07:09:12;25.30;;;15.27;;
26277;SDS011;14000;52.056;8.510;2023-04-24T07:11:43;22.67;;;14.57;;
26277;SDS011;14000;52.056;8.510;2023-04-24T07:14:09;25.83;;;15.30;;
26277;SDS011;14000;52.056;8.510;2023-04-24T07:16:35;24.60;;;14.50;;
26277;SDS011;14000;52.056;8.510;2023-04-24T07:19:01;22.50;;;13.63;;
26277;SDS011;14000;52.056;8.510;2023-04-24T07:21:26;23.10;;;13.83;;
26277;SDS011;14000;52.056;8.510;2023-04-24T07:23:52;21.47;;;13.53;;
26277;SDS011;14000;52.056;8.510;2023-04-24T07:26:19;22.40;;;14.13;;
26277;SDS011;14000;52.056;8.510;2023-04-24T07:28:45;28.27;;;12.73;;
26277;SDS011;14000;52.056;8.510;2023-04-24T07:31:11;20.80;;;12.73;;
26277;SDS011;14000;52.056;8.510;2023-04-24T07:33:37;22.57;;;12.40;;
26277;SDS011;14000;52.056;8.510;2023-04-24T07:36:03;23.37;;;12.47;;
26277;SDS011;14000;52.056;8.510;2023-04-24T07:38:29;19.97;;;12.10;;
26277;SDS011;14000;52.056;8.510;2023-04-24T07:40:56;19.10;;;11.27;;
26277;SDS011;14000;52.056;8.510;2023-04-24T07:43:21;20.50;;;10.53;;
26277;SDS011;14000;52.056;8.510;2023-04-24T07:45:48;17.00;;;10.03;;
26277;SDS011;14000;52.056;8.510;2023-04-24T07:48:14;16.53;;;9.50;;
26277;SDS011;14000;52.056;8.510;2023-04-24T07:50:41;18.87;;;9.37;;
26277;SDS011;14000;52.056;8.510;2023-04-24T07:53:07;15.67;;;9.03;;
26277;SDS011;14000;52.056;8.510;2023-04-24T07:55:33;15.37;;;8.47;;
26277;SDS011;14000;52.056;8.510;2023-04-24T07:57:58;14.63;;;7.87;;
26277;SDS011;14000;52.056;8.510;2023-04-24T08:00:24;21.40;;;9.87;;
26277;SDS011;14000;52.056;8.510;2023-04-24T08:02:50;19.10;;;8.60;;
26277;SDS011;14000;52.056;8.510;2023-04-24T08:05:15;13.13;;;6.50;;
26277;SDS011;14000;52.056;8.510;2023-04-24T08:07:41;12.60;;;6.73;;
26277;SDS011;14000;52.056;8.510;2023-04-24T08:10:11;12.27;;;6.70;;
26277;SDS011;14000;52.056;8.510;2023-04-24T08:12:37;12.83;;;7.10;;
26277;SDS011;14000;52.056;8.510;2023-04-24T08:15:03;14.23;;;6.47;;
26277;SDS011;14000;52.056;8.510;2023-04-24T08:17:29;15.57;;;7.60;;
26277;SDS011;14000;52.056;8.510;2023-04-24T08:19:55;14.70;;;7.73;;
26277;SDS011;14000;52.056;8.510;2023-04-24T08:22:26;14.07;;;7.17;;
26277;SDS011;14000;52.056;8.510;2023-04-24T08:24:52;11.90;;;5.83;;
26277;SDS011;14000;52.056;8.510;2023-04-24T08:27:18;12.00;;;6.30;;
26277;SDS011;14000;52.056;8.510;2023-04-24T08:29:43;12.13;;;6.10;;
26277;SDS011;14000;52.056;8.510;2023-04-24T08:32:09;11.80;;;5.97;;
26277;SDS011;14000;52.056;8.510;2023-04-24T08:34:34;11.50;;;6.23;;
26277;SDS011;14000;52.056;8.510;2023-04-24T08:37:00;15.10;;;6.57;;
26277;SDS011;14000;52.056;8.510;2023-04-24T08:39:26;12.23;;;5.53;;
26277;SDS011;14000;52.056;8.510;2023-04-24T08:41:52;12.57;;;6.27;;
26277;SDS011;14000;52.056;8.510;2023-04-24T08:44:18;12.70;;;6.67;;
26277;SDS011;14000;52.056;8.510;2023-04-24T08:46:45;12.10;;;5.60;;
26277;SDS011;14000;52.056;8.510;2023-04-24T08:49:14;10.63;;;5.10;;
26277;SDS011;14000;52.056;8.510;2023-04-24T08:51:42;10.73;;;4.70;;
26277;SDS011;14000;52.056;8.510;2023-04-24T08:54:09;8.73;;;4.00;;
26277;SDS011;14000;52.056;8.510;2023-04-24T08:56:36;10.50;;;4.30;;
26277;SDS011;14000;52.056;8.510;2023-04-24T08:59:04;9.13;;;3.60;;
26277;SDS011;14000;52.056;8.510;2023-04-24T09:01:33;8.27;;;3.60;;
26277;SDS011;14000;52.056;8.510;2023-04-24T09:04:03;8.40;;;3.73;;
26277;SDS011;14000;52.056;8.510;2023-04-24T09:06:29;9.07;;;4.00;;
26277;SDS011;14000;52.056;8.510;2023-04-24T09:08:57;8.50;;;4.10;;
26277;SDS011;14000;52.056;8.510;2023-04-24T09:11:26;9.00;;;3.37;;
26277;SDS011;14000;52.056;8.510;2023-04-24T09:13:53;8.27;;;3.30;;
26277;SDS011;14000;52.056;8.510;2023-04-24T09:16:20;8.17;;;3.33;;
26277;SDS011;14000;52.056;8.510;2023-04-24T09:18:45;8.03;;;3.43;;
26277;SDS011;14000;52.056;8.510;2023-04-24T09:21:11;8.23;;;3.20;;
26277;SDS011;14000;52.056;8.510;2023-04-24T09:23:37;9.27;;;3.23;;
26277;SDS011;14000;52.056;8.510;2023-04-24T09:26:04;8.77;;;3.33;;
26277;SDS011;14000;52.056;8.510;2023-04-24T09:28:36;8.23;;;3.27;;
26277;SDS011;14000;52.056;8.510;2023-04-24T09:31:05;7.80;;;3.37;;
26277;SDS011;14000;52.056;8.510;2023-04-24T09:33:39;8.27;;;3.40;;
26277;SDS011;14000;52.056;8.510;2023-04-24T09:36:05;8.87;;;2.90;;
26277;SDS011;14000;52.056;8.510;2023-04-24T09:41:06;7.83;;;2.90;;
26277;SDS011;14000;52.056;8.510;2023-04-24T09:43:33;6.90;;;2.50;;
26277;SDS011;14000;52.056;8.510;2023-04-24T09:46:03;7.80;;;2.67;;
26277;SDS011;14000;52.056;8.510;2023-04-24T09:48:35;7.97;;;2.40;;
26277;SDS011;14000;52.056;8.510;2023-04-24T09:51:02;8.60;;;2.60;;
26277;SDS011;14000;52.056;8.510;2023-04-24T09:53:31;7.17;;;2.60;;
26277;SDS011;14000;52.056;8.510;2023-04-24T09:56:15;7.40;;;2.50;;
26277;SDS011;14000;52.056;8.510;2023-04-24T09:58:41;7.97;;;2.73;;
26277;SDS011;14000;52.056;8.510;2023-04-24T10:01:06;7.30;;;2.87;;
26277;SDS011;14000;52.056;8.510;2023-04-24T10:03:32;7.20;;;2.90;;
26277;SDS011;14000;52.056;8.510;2023-04-24T10:05:59;7.80;;;3.03;;
26277;SDS011;14000;52.056;8.510;2023-04-24T10:08:25;8.60;;;3.30;;
26277;SDS011;14000;52.056;8.510;2023-04-24T10:10:57;6.80;;;2.70;;
26277;SDS011;14000;52.056;8.510;2023-04-24T10:13:24;7.83;;;3.00;;
26277;SDS011;14000;52.056;8.510;2023-04-24T10:15:50;7.67;;;2.50;;
26277;SDS011;14000;52.056;8.510;2023-04-24T10:18:16;6.77;;;2.30;;
26277;SDS011;14000;52.056;8.510;2023-04-24T10:20:42;6.80;;;2.20;;
26277;SDS011;14000;52.056;8.510;2023-04-24T10:23:08;7.57;;;2.40;;
26277;SDS011;14000;52.056;8.510;2023-04-24T10:25:35;7.60;;;2.67;;
26277;SDS011;14000;52.056;8.510;2023-04-24T10:28:04;6.90;;;2.50;;
26277;SDS011;14000;52.056;8.510;2023-04-24T10:30:32;7.50;;;2.70;;
26277;SDS011;14000;52.056;8.510;2023-04-24T10:33:05;6.00;;;2.10;;
26277;SDS011;14000;52.056;8.510;2023-04-24T10:35:34;7.50;;;2.10;;
26277;SDS011;14000;52.056;8.510;2023-04-24T10:38:08;6.63;;;2.57;;
26277;SDS011;14000;52.056;8.510;2023-04-24T10:40:37;7.17;;;2.70;;
26277;SDS011;14000;52.056;8.510;2023-04-24T10:43:03;8.30;;;3.57;;
26277;SDS011;14000;52.056;8.510;2023-04-24T10:45:34;8.73;;;3.63;;
26277;SDS011;14000;52.056;8.510;2023-04-24T10:48:03;11.10;;;4.10;;
26277;SDS011;14000;52.056;8.510;2023-04-24T10:53:30;8.60;;;4.40;;
26277;SDS011;14000;52.056;8.510;2023-04-24T10:56:03;9.00;;;5.03;;
26277;SDS011;14000;52.056;8.510;2023-04-24T11:01:03;10.13;;;5.67;;
26277;SDS011;14000;52.056;8.510;2023-04-24T11:03:30;11.47;;;6.93;;
26277;SDS011;14000;52.056;8.510;2023-04-24T11:08:24;13.47;;;7.83;;
26277;SDS011;14000;52.056;8.510;2023-04-24T11:10:58;14.00;;;8.47;;
26277;SDS011;14000;52.056;8.510;2023-04-24T11:18:52;11.27;;;7.37;;
26277;SDS011;14000;52.056;8.510;2023-04-24T11:21:25;11.97;;;8.30;;
26277;SDS011;14000;52.056;8.510;2023-04-24T11:23:51;12.00;;;7.53;;
26277;SDS011;14000;52.056;8.510;2023-04-24T11:26:18;11.83;;;7.03;;
26277;SDS011;14000;52.056;8.510;2023-04-24T11:28:46;11.87;;;6.60;;
26277;SDS011;14000;52.056;8.510;2023-04-24T11:34:11;11.47;;;6.20;;
26277;SDS011;14000;52.056;8.510;2023-04-24T11:36:39;9.00;;;4.07;;
26277;SDS011;14000;52.056;8.510;2023-04-24T11:39:07;10.90;;;4.03;;
26277;SDS011;14000;52.056;8.510;2023-04-24T11:41:33;7.77;;;3.33;;
26277;SDS011;14000;52.056;8.510;2023-04-24T11:44:00;9.87;;;3.73;;
26277;SDS011;14000;52.056;8.510;2023-04-24T11:46:27;7.13;;;2.90;;
26277;SDS011;14000;52.056;8.510;2023-04-24T11:48:54;6.47;;;2.13;;
26277;SDS011;14000;52.056;8.510;2023-04-24T11:51:21;5.83;;;2.00;;
26277;SDS011;14000;52.056;8.510;2023-04-24T11:53:48;6.87;;;2.13;;
26277;SDS011;14000;52.056;8.510;2023-04-24T11:56:17;7.03;;;2.40;;
26277;SDS011;14000;52.056;8.510;2023-04-24T11:58:44;6.20;;;2.20;;
26277;SDS011;14000;52.056;8.510;2023-04-24T12:01:09;7.00;;;2.90;;
26277;SDS011;14000;52.056;8.510;2023-04-24T12:03:35;8.33;;;3.33;;
26277;SDS011;14000;52.056;8.510;2023-04-24T12:06:10;8.97;;;4.10;;
26277;SDS011;14000;52.056;8.510;2023-04-24T12:08:36;11.07;;;4.87;;
26277;SDS011;14000;52.056;8.510;2023-04-24T12:11:03;9.77;;;4.13;;
26277;SDS011;14000;52.056;8.510;2023-04-24T12:13:30;9.73;;;4.10;;
26277;SDS011;14000;52.056;8.510;2023-04-24T12:15:59;10.07;;;5.27;;
26277;SDS011;14000;52.056;8.510;2023-04-24T12:18:26;11.20;;;5.33;;
26277;SDS011;14000;52.056;8.510;2023-04-24T12:20:52;11.00;;;5.40;;
26277;SDS011;14000;52.056;8.510;2023-04-24T12:23:37;12.17;;;5.83;;
26277;SDS011;14000;52.056;8.510;2023-04-24T12:26:03;13.33;;;6.07;;
26277;SDS011;14000;52.056;8.510;2023-04-24T12:28:36;11.50;;;6.03;;
26277;SDS011;14000;52.056;8.510;2023-04-24T12:31:02;14.80;;;6.80;;
26277;SDS011;14000;52.056;8.510;2023-04-24T12:33:31;15.80;;;8.07;;
26277;SDS011;14000;52.056;8.510;2023-04-24T12:35:58;14.83;;;7.23;;
26277;SDS011;14000;52.056;8.510;2023-04-24T12:38:25;17.87;;;8.07;;
26277;SDS011;14000;52.056;8.510;2023-04-24T12:41:02;16.93;;;7.70;;
26277;SDS011;14000;52.056;8.510;2023-04-24T12:43:29;19.30;;;10.40;;
26277;SDS011;14000;52.056;8.510;2023-04-24T12:45:55;19.83;;;9.80;;
26277;SDS011;14000;52.056;8.510;2023-04-24T12:48:21;19.57;;;10.87;;
26277;SDS011;14000;52.056;8.510;2023-04-24T12:50:48;28.97;;;10.60;;
26277;SDS011;14000;52.056;8.510;2023-04-24T12:53:14;22.97;;;11.60;;
26277;SDS011;14000;52.056;8.510;2023-04-24T12:55:41;19.87;;;11.30;;
26277;SDS011;14000;52.056;8.510;2023-04-24T12:58:06;20.63;;;10.83;;
26277;SDS011;14000;52.056;8.510;2023-04-24T13:00:32;22.00;;;10.90;;
26277;SDS011;14000;52.056;8.510;2023-04-24T13:02:58;21.97;;;11.20;;
26277;SDS011;14000;52.056;8.510;2023-04-24T13:05:24;16.80;;;9.57;;
26277;SDS011;14000;52.056;8.510;2023-04-24T13:07:49;22.63;;;9.43;;
26277;SDS011;14000;52.056;8.510;2023-04-24T13:10:15;17.90;;;8.50;;
26277;SDS011;14000;52.056;8.510;2023-04-24T13:12:41;22.00;;;9.30;;
26277;SDS011;14000;52.056;8.510;2023-04-24T13:15:10;16.90;;;8.47;;
26277;SDS011;14000;52.056;8.510;2023-04-24T13:17:35;17.23;;;8.37;;
26277;SDS011;14000;52.056;8.510;2023-04-24T13:20:01;14.87;;;7.40;;
26277;SDS011;14000;52.056;8.510;2023-04-24T13:22:27;16.20;;;7.53;;
26277;SDS011;14000;52.056;8.510;2023-04-24T13:24:53;15.70;;;7.23;;
26277;SDS011;14000;52.056;8.510;2023-04-24T13:27:19;17.40;;;7.70;;
26277;SDS011;14000;52.056;8.510;2023-04-24T13:29:45;15.90;;;7.77;;
26277;SDS011;14000;52.056;8.510;2023-04-24T13:32:11;18.27;;;8.97;;
26277;SDS011;14000;52.056;8.510;2023-04-24T13:34:36;19.67;;;8.73;;
26277;SDS011;14000;52.056;8.510;2023-04-24T13:37:02;20.20;;;8.47;;
26277;SDS011;14000;52.056;8.510;2023-04-24T13:39:28;16.67;;;8.73;;
26277;SDS011;14000;52.056;8.510;2023-04-24T13:41:54;18.87;;;9.43;;
26277;SDS011;14000;52.056;8.510;2023-04-24T13:44:20;21.27;;;10.50;;
26277;SDS011;14000;52.056;8.510;2023-04-24T13:46:47;26.80;;;11.90;;
26277;SDS011;14000;52.056;8.510;2023-04-24T13:49:15;23.53;;;11.17;;
26277;SDS011;14000;52.056;8.510;2023-04-24T13:51:41;22.67;;;10.97;;
26277;SDS011;14000;52.056;8.510;2023-04-24T13:54:07;26.73;;;11.90;;
26277;SDS011;14000;52.056;8.510;2023-04-24T13:56:33;29.33;;;13.47;;
26277;SDS011;14000;52.056;8.510;2023-04-24T13:58:59;26.10;;;12.17;;
26277;SDS011;14000;52.056;8.510;2023-04-24T14:01:25;25.77;;;12.70;;
26277;SDS011;14000;52.056;8.510;2023-04-24T14:03:52;25.47;;;13.30;;
26277;SDS011;14000;52.056;8.510;2023-04-24T14:06:18;31.47;;;14.93;;
26277;SDS011;14000;52.056;8.510;2023-04-24T14:08:44;30.73;;;14.27;;
26277;SDS011;14000;52.056;8.510;2023-04-24T14:11:10;28.33;;;13.83;;
26277;SDS011;14000;52.056;8.510;2023-04-24T14:13:36;27.97;;;12.90;;
26277;SDS011;14000;52.056;8.510;2023-04-24T14:16:05;24.27;;;13.13;;
26277;SDS011;14000;52.056;8.510;2023-04-24T14:18:31;25.43;;;12.63;;
26277;SDS011;14000;52.056;8.510;2023-04-24T14:20:56;23.37;;;12.10;;
26277;SDS011;14000;52.056;8.510;2023-04-24T14:23:22;27.67;;;12.60;;
26277;SDS011;14000;52.056;8.510;2023-04-24T14:25:47;19.57;;;10.63;;
26277;SDS011;14000;52.056;8.510;2023-04-24T14:28:17;24.70;;;10.20;;
26277;SDS011;14000;52.056;8.510;2023-04-24T14:30:43;22.37;;;10.13;;
26277;SDS011;14000;52.056;8.510;2023-04-24T14:33:09;22.30;;;9.77;;
26277;SDS011;14000;52.056;8.510;2023-04-24T14:35:35;18.47;;;8.93;;
26277;SDS011;14000;52.056;8.510;2023-04-24T14:38:01;15.77;;;8.53;;
26277;SDS011;14000;52.056;8.510;2023-04-24T14:40:27;23.60;;;9.37;;
26277;SDS011;14000;52.056;8.510;2023-04-24T14:42:53;24.47;;;9.20;;
26277;SDS011;14000;52.056;8.510;2023-04-24T14:45:18;22.60;;;8.80;;
26277;SDS011;14000;52.056;8.510;2023-04-24T14:47:44;24.13;;;9.27;;
26277;SDS011;14000;52.056;8.510;2023-04-24T14:50:10;23.03;;;8.40;;
26277;SDS011;14000;52.056;8.510;2023-04-24T14:52:37;20.80;;;8.17;;